Alburgh, Vermont
Current Conditions -  °F | °C
As of 10:15 AM on Monday 24 Nov 2014 (Local Time) from KFSO Reporting Station
Light Rain Light Rain  
Wind Chill: 51°   Ceiling: 3000
Heat Index: 51°   Visibility: 5mi
Dew Point: 48°   Wind: 6mph
Humidity: 92%   Direction: 180°S
Pressure: 29.51"   Gusts: NA
Location:  44.98°N, 73.3°W
Report Text: KFSO 241415Z AUTO 18005KT 5SM -RA BKN030 OVC035 10/09 A2951 RMK AO2 T01040091
Loading
Personal Weather Stations






























Interactive Weather Map New forecast layout! Learn more

10-Day Weather Forecast

Advertisements
Track Severe Weather on mobile